Time;durP1;ratioP1;P1;durP2;ratioP2;P2;SDS_P1;SDS_P2;PMS_P1;PMS_P2;Temp;Humidity;BMP_temperature;BMP_pressure;BME280_temperature;BME280_humidity;BME280_pressure;Samples;Min_cycle;Max_cycle;Signal;HPM_P1;HPM_P2
2021/12/14 00:01:54;;;;;;;61.30;40.80;;;;;;;;;;4993385;28;20437;-78
2021/12/14 00:04:25;;;;;;;66.50;41.93;;;;;;;;;;4991470;28;20530;-79
2021/12/14 00:06:52;;;;;;;64.10;41.27;;;;;;;;;;4975281;28;20535;-79
2021/12/14 00:09:26;;;;;;;63.77;43.20;;;;;;;;;;4979569;28;20428;-79
2021/12/14 00:12:55;;;;;;;61.70;40.87;;;;;;;;;;4990762;28;20466;-78
2021/12/14 00:17:33;;;;;;;66.00;41.87;;;;;;;;;;4991431;28;22336;-79
2021/12/14 00:20:01;;;;;;;64.13;41.30;;;;;;;;;;4995158;28;20424;-79
2021/12/14 00:25:01;;;;;;;62.43;41.33;;;;;;;;;;4993406;28;20425;-79
2021/12/14 00:27:28;;;;;;;63.47;41.93;;;;;;;;;;4987040;28;20471;-78
2021/12/14 00:29:56;;;;;;;70.30;46.40;;;;;;;;;;4992249;28;20443;-79
2021/12/14 00:32:25;;;;;;;58.20;39.90;;;;;;;;;;4989564;28;20424;-79
2021/12/14 00:34:54;;;;;;;61.20;41.60;;;;;;;;;;4974954;28;20435;-79
2021/12/14 00:37:23;;;;;;;54.83;38.47;;;;;;;;;;4992963;28;20834;-79
2021/12/14 00:39:50;;;;;;;60.77;42.03;;;;;;;;;;4975069;28;20418;-79
2021/12/14 00:42:20;;;;;;;61.37;41.37;;;;;;;;;;4974167;28;20780;-79
2021/12/14 00:44:48;;;;;;;60.87;40.87;;;;;;;;;;4989456;28;20416;-79
2021/12/14 00:47:14;;;;;;;58.13;41.20;;;;;;;;;;4986437;28;20431;-79
2021/12/14 00:49:40;;;;;;;56.80;39.43;;;;;;;;;;4991978;28;20408;-79
2021/12/14 00:52:07;;;;;;;60.40;40.43;;;;;;;;;;4995107;28;20412;-79
2021/12/14 00:54:34;;;;;;;59.20;40.93;;;;;;;;;;4984105;28;20440;-80
2021/12/14 00:57:01;;;;;;;62.30;43.13;;;;;;;;;;4992000;28;20432;-80
2021/12/14 00:59:27;;;;;;;62.17;41.20;;;;;;;;;;4975526;28;20459;-79
2021/12/14 01:01:55;;;;;;;58.87;41.07;;;;;;;;;;4975399;28;20424;-79
2021/12/14 01:04:24;;;;;;;66.97;44.13;;;;;;;;;;4988068;28;20862;-79
2021/12/14 01:06:50;;;;;;;72.67;48.70;;;;;;;;;;4991460;28;20429;-79
2021/12/14 01:09:20;;;;;;;68.30;45.33;;;;;;;;;;4990117;28;20530;-79
2021/12/14 01:11:47;;;;;;;60.97;42.30;;;;;;;;;;4977448;28;20518;-80
2021/12/14 01:14:24;;;;;;;63.60;46.63;;;;;;;;;;4989956;28;20427;-79
2021/12/14 01:17:07;;;;;;;81.93;50.10;;;;;;;;;;4990971;28;20453;-79
2021/12/14 01:19:36;;;;;;;67.10;47.57;;;;;;;;;;4974241;28;21105;-79
2021/12/14 01:22:23;;;;;;;66.43;46.30;;;;;;;;;;4992407;28;20417;-79
2021/12/14 01:25:03;;;;;;;70.20;46.97;;;;;;;;;;4976187;28;20424;-80
2021/12/14 01:27:52;;;;;;;68.63;46.47;;;;;;;;;;5005328;28;20547;-79
2021/12/14 01:30:26;;;;;;;64.60;44.97;;;;;;;;;;4993037;28;20460;-79
2021/12/14 01:32:53;;;;;;;59.27;44.83;;;;;;;;;;5002200;28;20615;-80
2021/12/14 01:35:23;;;;;;;65.80;47.07;;;;;;;;;;4993514;28;20435;-79
2021/12/14 01:38:00;;;;;;;66.83;46.97;;;;;;;;;;4988441;28;21014;-80
2021/12/14 01:43:14;;;;;;;75.10;52.27;;;;;;;;;;4992914;28;20446;-79
2021/12/14 01:45:40;;;;;;;77.93;55.67;;;;;;;;;;4974230;28;21242;-79
2021/12/14 01:48:06;;;;;;;78.20;55.37;;;;;;;;;;4993620;28;20567;-79
2021/12/14 01:50:39;;;;;;;71.33;48.37;;;;;;;;;;4976937;28;21235;-80
2021/12/14 01:53:05;;;;;;;63.80;47.23;;;;;;;;;;4986798;28;20512;-79
2021/12/14 01:55:35;;;;;;;63.53;48.70;;;;;;;;;;4979194;28;20564;-79
2021/12/14 01:58:04;;;;;;;60.30;46.70;;;;;;;;;;4973688;28;20532;-79
2021/12/14 02:00:37;;;;;;;66.67;48.23;;;;;;;;;;4984590;28;20482;-79
2021/12/14 02:03:06;;;;;;;70.63;52.00;;;;;;;;;;4985055;28;20463;-77
2021/12/14 02:05:34;;;;;;;62.17;46.40;;;;;;;;;;4965154;28;20464;-77
2021/12/14 02:08:01;;;;;;;65.50;47.80;;;;;;;;;;4983853;28;20443;-78
2021/12/14 02:10:30;;;;;;;62.23;44.80;;;;;;;;;;4997876;28;20433;-78
2021/12/14 02:12:56;;;;;;;67.40;49.37;;;;;;;;;;4984451;28;20441;-78
2021/12/14 02:15:26;;;;;;;64.77;48.57;;;;;;;;;;4967908;28;20451;-79
2021/12/14 02:17:53;;;;;;;63.83;47.63;;;;;;;;;;4965693;28;21504;-78
2021/12/14 02:20:22;;;;;;;63.60;47.00;;;;;;;;;;4968155;28;21177;-78
2021/12/14 02:22:49;;;;;;;62.57;44.60;;;;;;;;;;4985523;28;20514;-78
2021/12/14 02:25:16;;;;;;;62.63;46.57;;;;;;;;;;4965136;28;20444;-79
2021/12/14 02:27:45;;;;;;;58.20;44.07;;;;;;;;;;4981419;28;20425;-79
2021/12/14 02:30:14;;;;;;;60.60;43.80;;;;;;;;;;4980997;28;21016;-79
2021/12/14 02:32:41;;;;;;;72.07;50.10;;;;;;;;;;4980557;28;21015;-78
2021/12/14 02:35:11;;;;;;;58.60;44.67;;;;;;;;;;4982212;28;20554;-79
2021/12/14 02:37:37;;;;;;;59.37;41.33;;;;;;;;;;4982045;28;20416;-78
2021/12/14 02:40:14;;;;;;;77.47;52.73;;;;;;;;;;4965156;28;20440;-78
2021/12/14 02:42:41;;;;;;;56.30;42.30;;;;;;;;;;4999202;28;20464;-78
2021/12/14 02:45:08;;;;;;;62.80;43.73;;;;;;;;;;4982689;28;20428;-79
2021/12/14 02:47:34;;;;;;;61.83;43.67;;;;;;;;;;4987641;28;21319;-78
2021/12/14 02:50:00;;;;;;;56.97;42.37;;;;;;;;;;4970134;28;20551;-78
2021/12/14 02:52:35;;;;;;;61.93;43.00;;;;;;;;;;4973256;28;20440;-78
2021/12/14 02:55:08;;;;;;;59.10;43.40;;;;;;;;;;4982812;28;20440;-78
2021/12/14 02:57:36;;;;;;;57.70;43.87;;;;;;;;;;4982894;28;20444;-78
2021/12/14 03:00:06;;;;;;;57.03;42.37;;;;;;;;;;5001755;28;20428;-79
2021/12/14 03:02:34;;;;;;;55.47;41.80;;;;;;;;;;4987378;28;20527;-78
2021/12/14 03:05:02;;;;;;;60.50;44.97;;;;;;;;;;4988088;28;20428;-79
2021/12/14 03:07:31;;;;;;;63.53;46.80;;;;;;;;;;4986604;28;20435;-78
2021/12/14 03:10:06;;;;;;;63.33;45.83;;;;;;;;;;4969313;28;20432;-79
2021/12/14 03:12:39;;;;;;;61.27;46.07;;;;;;;;;;4985733;28;20450;-78
2021/12/14 03:15:14;;;;;;;61.13;45.90;;;;;;;;;;4972310;28;20438;-79
2021/12/14 03:17:43;;;;;;;64.60;46.97;;;;;;;;;;4988732;28;20420;-79
2021/12/14 03:20:15;;;;;;;69.77;51.60;;;;;;;;;;4970575;28;20559;-78
2021/12/14 03:22:41;;;;;;;66.90;48.80;;;;;;;;;;4985557;28;20416;-78
2021/12/14 03:25:09;;;;;;;70.03;48.97;;;;;;;;;;4984324;28;20435;-78
2021/12/14 03:27:38;;;;;;;67.00;48.07;;;;;;;;;;4985562;28;20556;-78
2021/12/14 03:30:13;;;;;;;68.70;48.50;;;;;;;;;;4998638;28;20855;-79
2021/12/14 03:32:39;;;;;;;59.00;44.10;;;;;;;;;;4979881;28;22072;-78
2021/12/14 03:35:06;;;;;;;57.97;43.80;;;;;;;;;;4999305;28;20483;-78
2021/12/14 03:37:33;;;;;;;66.07;45.83;;;;;;;;;;4984328;28;20500;-78
2021/12/14 03:40:00;;;;;;;82.00;52.83;;;;;;;;;;4971956;28;20492;-78
2021/12/14 03:42:36;;;;;;;62.20;45.07;;;;;;;;;;4982069;28;20606;-78
2021/12/14 03:45:05;;;;;;;61.93;45.97;;;;;;;;;;4980280;28;21420;-78
2021/12/14 03:47:36;;;;;;;61.97;45.73;;;;;;;;;;4982138;28;20475;-79
2021/12/14 03:50:09;;;;;;;68.90;49.37;;;;;;;;;;4984503;28;20842;-78
2021/12/14 03:52:38;;;;;;;85.17;56.50;;;;;;;;;;4989871;28;20538;-78
2021/12/14 03:55:11;;;;;;;72.50;52.13;;;;;;;;;;4982484;28;20429;-78
2021/12/14 03:57:38;;;;;;;68.13;48.77;;;;;;;;;;4985390;28;20675;-79
2021/12/14 04:00:06;;;;;;;82.83;56.13;;;;;;;;;;4982235;28;20558;-78
2021/12/14 04:02:34;;;;;;;73.50;50.50;;;;;;;;;;4972438;28;20464;-79
2021/12/14 04:05:04;;;;;;;80.03;57.83;;;;;;;;;;4963967;28;20495;-78
2021/12/14 04:07:31;;;;;;;87.30;58.97;;;;;;;;;;4982061;28;21231;-79
2021/12/14 04:09:57;;;;;;;71.53;49.77;;;;;;;;;;4974002;28;20431;-78
2021/12/14 04:12:23;;;;;;;67.00;47.07;;;;;;;;;;4984522;28;20439;-79
2021/12/14 04:14:55;;;;;;;63.10;46.07;;;;;;;;;;4974877;28;20540;-78
2021/12/14 04:17:22;;;;;;;73.37;50.13;;;;;;;;;;4981863;28;20435;-78
2021/12/14 04:19:49;;;;;;;66.73;46.30;;;;;;;;;;4986973;28;21263;-79
2021/12/14 04:22:17;;;;;;;61.30;43.53;;;;;;;;;;4988606;28;20428;-79
2021/12/14 04:24:45;;;;;;;58.43;40.67;;;;;;;;;;4987212;28;21336;-79
2021/12/14 04:27:13;;;;;;;64.80;42.63;;;;;;;;;;4993327;28;20447;-78
2021/12/14 04:29:40;;;;;;;61.40;40.23;;;;;;;;;;4970409;28;20437;-78
2021/12/14 04:32:08;;;;;;;55.37;38.20;;;;;;;;;;4986564;28;20526;-79
2021/12/14 04:34:34;;;;;;;58.73;39.53;;;;;;;;;;4989843;28;20806;-79
2021/12/14 04:37:02;;;;;;;58.97;38.90;;;;;;;;;;4969110;28;21296;-78
2021/12/14 04:39:37;;;;;;;57.73;38.40;;;;;;;;;;4977456;28;20439;-79
2021/12/14 04:53:39;;;;;;;48.03;33.53;;;;;;;;;;4987682;28;20462;-78
2021/12/14 04:56:07;;;;;;;52.27;38.00;;;;;;;;;;4968239;28;20483;-78
2021/12/14 04:58:36;;;;;;;50.07;33.00;;;;;;;;;;4983466;28;20518;-78
2021/12/14 05:01:05;;;;;;;46.80;34.20;;;;;;;;;;4982431;28;20436;-78
2021/12/14 05:03:50;;;;;;;45.10;30.97;;;;;;;;;;4982925;28;20452;-78
2021/12/14 05:06:19;;;;;;;45.70;31.57;;;;;;;;;;4987595;28;20547;-78
2021/12/14 05:11:42;;;;;;;43.07;30.67;;;;;;;;;;4987663;28;20432;-79
2021/12/14 05:14:11;;;;;;;39.07;28.87;;;;;;;;;;4976274;28;20432;-79
2021/12/14 05:16:37;;;;;;;46.03;30.30;;;;;;;;;;4990827;28;21378;-79
2021/12/14 05:19:05;;;;;;;44.07;29.37;;;;;;;;;;4986923;28;20457;-78
2021/12/14 05:21:33;;;;;;;43.37;30.10;;;;;;;;;;4967278;28;20429;-79
2021/12/14 05:24:00;;;;;;;40.27;27.50;;;;;;;;;;4990474;28;20447;-79
2021/12/14 05:26:30;;;;;;;41.93;28.80;;;;;;;;;;4971852;28;20670;-80
2021/12/14 05:29:03;;;;;;;41.67;27.90;;;;;;;;;;4985008;28;20440;-79
2021/12/14 05:31:32;;;;;;;40.07;29.47;;;;;;;;;;4975737;28;20440;-79
2021/12/14 05:33:59;;;;;;;38.80;27.07;;;;;;;;;;4985694;28;21044;-79
2021/12/14 05:36:27;;;;;;;39.67;27.33;;;;;;;;;;4972313;28;20421;-78
2021/12/14 05:39:00;;;;;;;35.90;25.33;;;;;;;;;;4970345;28;20429;-79
2021/12/14 05:44:13;;;;;;;49.73;29.93;;;;;;;;;;4987545;28;20460;-78
2021/12/14 05:46:42;;;;;;;36.27;24.43;;;;;;;;;;4981998;28;20436;-78
2021/12/14 05:49:11;;;;;;;37.83;25.10;;;;;;;;;;4984767;28;20424;-78
2021/12/14 05:51:38;;;;;;;43.80;28.93;;;;;;;;;;4972397;28;20429;-78
2021/12/14 05:54:05;;;;;;;31.47;22.23;;;;;;;;;;4973270;28;20432;-78
2021/12/14 05:56:32;;;;;;;36.93;24.20;;;;;;;;;;4973095;28;20677;-79
2021/12/14 05:59:01;;;;;;;30.80;21.40;;;;;;;;;;5001397;28;21009;-79
2021/12/14 06:01:30;;;;;;;35.60;24.30;;;;;;;;;;5005270;28;20467;-78
2021/12/14 06:03:59;;;;;;;31.17;22.33;;;;;;;;;;4986398;28;20467;-79
2021/12/14 06:06:33;;;;;;;36.67;24.10;;;;;;;;;;4989518;28;20420;-78
2021/12/14 06:09:11;;;;;;;29.77;22.33;;;;;;;;;;4988191;28;20435;-79
2021/12/14 06:11:38;;;;;;;38.47;24.80;;;;;;;;;;4993653;28;20427;-79
2021/12/14 06:14:06;;;;;;;36.90;25.03;;;;;;;;;;4969354;28;20436;-79
2021/12/14 06:16:34;;;;;;;37.57;25.30;;;;;;;;;;4983778;28;20436;-78
2021/12/14 06:19:19;;;;;;;35.50;24.17;;;;;;;;;;4983326;28;20444;-79
2021/12/14 06:21:47;;;;;;;39.10;24.83;;;;;;;;;;4987846;28;21284;-79
2021/12/14 06:24:14;;;;;;;37.20;24.97;;;;;;;;;;4981859;28;20468;-78
2021/12/14 06:26:46;;;;;;;42.77;26.10;;;;;;;;;;4982571;28;20427;-78
2021/12/14 06:29:16;;;;;;;36.63;24.77;;;;;;;;;;4969727;28;20514;-78
2021/12/14 06:31:42;;;;;;;36.80;24.73;;;;;;;;;;4991614;28;20419;-79
2021/12/14 06:34:24;;;;;;;42.03;27.13;;;;;;;;;;4978503;28;20473;-79
2021/12/14 06:37:03;;;;;;;42.27;27.77;;;;;;;;;;4984076;28;20423;-78
2021/12/14 06:39:38;;;;;;;42.10;28.53;;;;;;;;;;4969872;28;20437;-78
2021/12/14 06:42:17;;;;;;;47.00;30.67;;;;;;;;;;4996233;28;20450;-79
2021/12/14 06:44:43;;;;;;;47.23;30.90;;;;;;;;;;4982343;28;20467;-79
2021/12/14 06:47:13;;;;;;;48.13;30.60;;;;;;;;;;4982720;28;20424;-79
2021/12/14 06:49:45;;;;;;;57.53;36.70;;;;;;;;;;4968886;28;20707;-78
2021/12/14 06:52:17;;;;;;;61.10;39.83;;;;;;;;;;4971072;28;20789;-78
2021/12/14 06:54:49;;;;;;;57.03;37.37;;;;;;;;;;4981486;28;20448;-79
2021/12/14 06:57:26;;;;;;;69.93;43.30;;;;;;;;;;4984543;28;20429;-79
2021/12/14 06:59:54;;;;;;;61.87;42.73;;;;;;;;;;4986756;28;21295;-79
2021/12/14 07:02:24;;;;;;;56.63;39.40;;;;;;;;;;4975494;28;20436;-79
2021/12/14 07:04:51;;;;;;;68.73;44.00;;;;;;;;;;4981106;28;20532;-79
2021/12/14 07:07:22;;;;;;;66.03;44.47;;;;;;;;;;4988327;28;20457;-79
2021/12/14 07:09:50;;;;;;;69.87;46.60;;;;;;;;;;4983896;28;20493;-79
2021/12/14 07:12:18;;;;;;;66.70;44.63;;;;;;;;;;4967212;28;20420;-79
2021/12/14 07:14:52;;;;;;;62.70;41.43;;;;;;;;;;4985305;28;20980;-80
2021/12/14 07:17:44;;;;;;;71.80;48.53;;;;;;;;;;4982982;28;20428;-79
2021/12/14 07:20:39;;;;;;;71.40;48.97;;;;;;;;;;4982468;28;20436;-79
2021/12/14 07:23:12;;;;;;;67.63;47.23;;;;;;;;;;4950024;28;20540;-80
2021/12/14 07:25:40;;;;;;;71.63;49.13;;;;;;;;;;4985231;28;20508;-79
2021/12/14 07:28:13;;;;;;;70.63;50.13;;;;;;;;;;4981705;28;20435;-79
2021/12/14 07:30:44;;;;;;;71.10;47.87;;;;;;;;;;4998258;28;20574;-79
2021/12/14 07:33:10;;;;;;;67.97;48.60;;;;;;;;;;4980330;28;20519;-79
2021/12/14 07:35:37;;;;;;;67.23;50.70;;;;;;;;;;4995506;28;20424;-79
2021/12/14 07:38:16;;;;;;;66.07;47.40;;;;;;;;;;4979666;28;21822;-78
2021/12/14 07:40:58;;;;;;;;;;;;;;;;;;;;;
2021/12/14 07:43:34;;;;;;;63.37;44.73;;;;;;;;;;4986240;28;21234;-80
2021/12/14 07:46:19;;;;;;;60.03;42.73;;;;;;;;;;4987656;28;20578;-78
2021/12/14 07:48:59;;;;;;;58.67;42.90;;;;;;;;;;4987421;28;20420;-78
2021/12/14 07:51:28;;;;;;;60.87;39.87;;;;;;;;;;4970798;28;21198;-78
2021/12/14 07:53:59;;;;;;;54.97;39.33;;;;;;;;;;4984197;28;20440;-79
2021/12/14 07:56:37;;;;;;;57.07;37.97;;;;;;;;;;4970971;28;20456;-80
2021/12/14 07:59:09;;;;;;;55.20;38.13;;;;;;;;;;4970306;28;20425;-79
2021/12/14 08:01:38;;;;;;;54.07;38.67;;;;;;;;;;4984674;28;20681;-79
2021/12/14 08:04:13;;;;;;;61.37;41.53;;;;;;;;;;5004103;28;20451;-79
2021/12/14 08:06:51;;;;;;;53.70;39.73;;;;;;;;;;4969871;28;20475;-79
2021/12/14 08:09:32;;;;;;;57.07;38.27;;;;;;;;;;4987713;28;20490;-79
2021/12/14 08:11:59;;;;;;;56.33;37.30;;;;;;;;;;4988444;28;20527;-80
2021/12/14 08:14:27;;;;;;;55.63;38.47;;;;;;;;;;4988721;28;20545;-80
2021/12/14 08:16:57;;;;;;;54.57;37.47;;;;;;;;;;4985172;28;20435;-79
2021/12/14 08:19:26;;;;;;;55.13;37.47;;;;;;;;;;5002086;28;20455;-79
2021/12/14 08:21:55;;;;;;;57.87;36.60;;;;;;;;;;5003130;28;20509;-79
2021/12/14 08:24:25;;;;;;;58.00;36.83;;;;;;;;;;4973130;28;20468;-79
2021/12/14 08:26:53;;;;;;;63.20;34.97;;;;;;;;;;4972699;28;20420;-79
2021/12/14 08:29:27;;;;;;;53.83;33.80;;;;;;;;;;4985976;28;20540;-79
2021/12/14 08:31:59;;;;;;;53.27;33.17;;;;;;;;;;4989376;28;20440;-79
2021/12/14 08:34:34;;;;;;;50.20;31.70;;;;;;;;;;4984277;28;20432;-79
2021/12/14 08:37:07;;;;;;;49.60;31.80;;;;;;;;;;4986214;28;20493;-80
2021/12/14 08:39:40;;;;;;;43.37;31.00;;;;;;;;;;5005308;28;20474;-80
2021/12/14 08:42:11;;;;;;;66.53;33.07;;;;;;;;;;4978706;28;20424;-79
2021/12/14 08:44:39;;;;;;;87.27;35.23;;;;;;;;;;4985900;28;20452;-79
2021/12/14 08:47:16;;;;;;;71.97;43.40;;;;;;;;;;4990590;28;20429;-79
2021/12/14 08:49:43;;;;;;;60.10;39.93;;;;;;;;;;4988326;28;20436;-79
2021/12/14 08:52:13;;;;;;;58.47;37.30;;;;;;;;;;4984476;28;21076;-79
2021/12/14 08:54:41;;;;;;;49.43;26.93;;;;;;;;;;4976298;28;20822;-79
2021/12/14 08:57:08;;;;;;;24.90;17.73;;;;;;;;;;4985616;28;20564;-79
2021/12/14 08:59:39;;;;;;;30.63;18.17;;;;;;;;;;4981129;28;21400;-79
2021/12/14 09:02:07;;;;;;;26.57;18.03;;;;;;;;;;4984938;28;20527;-79
2021/12/14 09:04:42;;;;;;;25.40;17.47;;;;;;;;;;4987981;28;20460;-79
2021/12/14 09:07:15;;;;;;;34.73;19.83;;;;;;;;;;4971424;28;20423;-79
2021/12/14 09:09:43;;;;;;;26.57;17.97;;;;;;;;;;4989838;28;20639;-79
2021/12/14 09:12:09;;;;;;;25.73;16.87;;;;;;;;;;4986551;28;20506;-79
2021/12/14 09:14:36;;;;;;;30.17;17.07;;;;;;;;;;4988548;28;20453;-80
2021/12/14 09:17:04;;;;;;;24.90;16.40;;;;;;;;;;4989997;28;21534;-79
2021/12/14 09:19:35;;;;;;;30.73;16.63;;;;;;;;;;4991069;28;20557;-79
2021/12/14 09:22:11;;;;;;;25.90;16.00;;;;;;;;;;4968186;28;20875;-79
2021/12/14 09:24:57;;;;;;;;;;;;;;;;;;;;;
2021/12/14 09:27:25;;;;;;;24.97;15.80;;;;;;;;;;4989138;28;21243;-80
2021/12/14 09:30:26;;;;;;;25.83;15.17;;;;;;;;;;4977359;28;20459;-80
2021/12/14 09:32:59;;;;;;;24.63;14.43;;;;;;;;;;4988060;28;20778;-80
2021/12/14 09:35:41;;;;;;;24.37;14.23;;;;;;;;;;4989075;28;21210;-80
2021/12/14 09:44:16;;;;;;;22.93;13.40;;;;;;;;;;4973736;28;21185;-80
2021/12/14 09:49:53;;;;;;;23.63;14.10;;;;;;;;;;4988702;28;20436;-80
2021/12/14 09:52:29;;;;;;;29.77;15.17;;;;;;;;;;4987118;28;20511;-80
2021/12/14 09:54:58;;;;;;;21.23;12.97;;;;;;;;;;4977616;28;20851;-80
2021/12/14 09:57:25;;;;;;;20.33;13.20;;;;;;;;;;4975231;28;20494;-80
2021/12/14 10:00:13;;;;;;;21.63;13.90;;;;;;;;;;4976508;28;20510;-81
2021/12/14 10:02:53;;;;;;;23.80;13.00;;;;;;;;;;4985673;28;20869;-80
2021/12/14 10:05:45;;;;;;;23.87;14.13;;;;;;;;;;4988032;28;20790;-80
2021/12/14 10:08:19;;;;;;;22.30;14.03;;;;;;;;;;4988389;28;21123;-80
2021/12/14 10:11:09;;;;;;;16.67;10.30;;;;;;;;;;4990544;28;20782;-80
2021/12/14 10:13:41;;;;;;;19.00;9.07;;;;;;;;;;4979061;28;20845;-80
2021/12/14 10:16:09;;;;;;;17.40;10.47;;;;;;;;;;5006396;28;20524;-80
2021/12/14 10:18:53;;;;;;;16.87;9.80;;;;;;;;;;4990511;28;20431;-80
2021/12/14 10:21:32;;;;;;;15.80;10.23;;;;;;;;;;4969723;28;20525;-80
2021/12/14 10:24:07;;;;;;;26.10;16.43;;;;;;;;;;4985497;28;21040;-80
2021/12/14 10:26:43;;;;;;;25.90;15.60;;;;;;;;;;4971256;28;20432;-80
2021/12/14 10:45:34;;;;;;;27.67;18.60;;;;;;;;;;4945093;28;20438;-80
2021/12/14 10:50:54;;;;;;;31.50;19.87;;;;;;;;;;4932587;28;21347;-79
2021/12/14 10:53:29;;;;;;;32.77;19.23;;;;;;;;;;4984272;28;20942;-80
2021/12/14 10:56:19;;;;;;;29.70;20.70;;;;;;;;;;4983037;28;20444;-80
2021/12/14 10:58:53;;;;;;;28.73;20.10;;;;;;;;;;4947951;28;20448;-80
2021/12/14 11:01:31;;;;;;;32.50;23.70;;;;;;;;;;4984566;28;20431;-80
2021/12/14 11:07:34;;;;;;;37.87;25.67;;;;;;;;;;4919690;28;20427;-80
2021/12/14 11:10:26;;;;;;;;;;;;;;;;;;;;;
2021/12/14 11:13:02;;;;;;;46.20;33.20;;;;;;;;;;4988418;28;20416;-81
2021/12/14 11:18:49;;;;;;;53.00;37.23;;;;;;;;;;4985746;28;20811;-80
2021/12/14 11:21:33;;;;;;;58.70;38.40;;;;;;;;;;4986487;28;20421;-80
2021/12/14 11:24:36;;;;;;;54.83;35.70;;;;;;;;;;4986655;28;20790;-80
2021/12/14 11:33:49;;;;;;;53.27;35.73;;;;;;;;;;4991949;28;20518;-79
2021/12/14 11:36:18;;;;;;;51.93;35.73;;;;;;;;;;4878620;29;20421;-80
2021/12/14 11:39:00;;;;;;;50.73;35.67;;;;;;;;;;4961566;28;20436;-81
2021/12/14 11:41:35;;;;;;;53.13;36.07;;;;;;;;;;4976985;28;20459;-81
2021/12/14 11:50:04;;;;;;;49.07;34.67;;;;;;;;;;4991400;28;21312;-81
2021/12/14 11:53:02;;;;;;;53.13;33.83;;;;;;;;;;4970780;28;20429;-81
2021/12/14 12:05:35;;;;;;;53.50;35.87;;;;;;;;;;4953586;28;20926;-81
2021/12/14 12:11:35;;;;;;;51.17;33.27;;;;;;;;;;4988960;28;21026;-80
2021/12/14 12:24:03;;;;;;;43.67;30.13;;;;;;;;;;4836200;29;20467;-81
2021/12/14 12:42:30;;;;;;;43.77;29.23;;;;;;;;;;4967704;28;20858;-81
2021/12/14 12:45:25;;;;;;;40.33;28.07;;;;;;;;;;4976062;28;20931;-81
2021/12/14 12:48:45;;;;;;;38.30;28.93;;;;;;;;;;4984185;28;20420;-81
2021/12/14 12:57:55;;;;;;;40.33;28.43;;;;;;;;;;4931536;28;20845;-82
2021/12/14 13:07:12;;;;;;;;;;;;;;;;;;;;;
2021/12/14 13:13:18;;;;;;;38.13;27.00;;;;;;;;;;4896397;29;20366;-82
2021/12/14 13:16:20;;;;;;;42.43;28.30;;;;;;;;;;4891639;29;20492;-81
2021/12/14 13:53:59;;;;;;;;;;;;;;;;;;;;;
2021/12/14 13:56:46;;;;;;;41.30;28.53;;;;;;;;;;4770504;29;20205;-81
2021/12/14 13:59:30;;;;;;;37.93;25.63;;;;;;;;;;4943523;28;20596;-81
2021/12/14 14:02:12;;;;;;;;;;;;;;;;;;;;;
2021/12/14 14:04:57;;;;;;;39.47;27.27;;;;;;;;;;4986504;28;20276;-81
2021/12/14 14:11:30;;;;;;;40.27;26.83;;;;;;;;;;4888304;29;20208;-79
2021/12/14 14:14:10;;;;;;;40.33;27.20;;;;;;;;;;4907296;28;20432;-80
2021/12/14 14:16:54;;;;;;;42.07;26.93;;;;;;;;;;4982459;28;20241;-79
2021/12/14 14:19:35;;;;;;;41.53;27.90;;;;;;;;;;4967183;28;20421;-79
2021/12/14 14:22:16;;;;;;;52.27;33.63;;;;;;;;;;4971433;28;20420;-79
2021/12/14 14:25:11;;;;;;;65.07;44.23;;;;;;;;;;4985015;28;20530;-79
2021/12/14 14:27:45;;;;;;;55.73;38.87;;;;;;;;;;4969802;28;20459;-80
2021/12/14 14:31:07;;;;;;;61.77;44.83;;;;;;;;;;4983039;28;20196;-79
2021/12/14 14:33:41;;;;;;;54.30;31.93;;;;;;;;;;4979266;28;20186;-80
2021/12/14 14:36:22;;;;;;;47.07;30.27;;;;;;;;;;4985234;28;20216;-81
2021/12/14 14:39:00;;;;;;;42.63;28.87;;;;;;;;;;4987026;28;20389;-81
2021/12/14 14:41:29;;;;;;;46.47;30.07;;;;;;;;;;5001684;28;20173;-80
2021/12/14 14:44:27;;;;;;;52.53;29.87;;;;;;;;;;4989542;28;20232;-80
2021/12/14 14:46:59;;;;;;;57.20;34.50;;;;;;;;;;4987640;28;20192;-80
2021/12/14 14:49:46;;;;;;;49.47;31.90;;;;;;;;;;4999765;28;20332;-80
2021/12/14 14:52:48;;;;;;;47.77;29.93;;;;;;;;;;4972045;28;20185;-80
2021/12/14 14:55:33;;;;;;;58.77;30.60;;;;;;;;;;4985703;28;20650;-79
2021/12/14 14:58:03;;;;;;;52.57;31.57;;;;;;;;;;4973964;28;20436;-80
2021/12/14 15:00:33;;;;;;;46.37;29.80;;;;;;;;;;4983567;28;20436;-80
2021/12/14 15:03:01;;;;;;;46.67;31.07;;;;;;;;;;4985704;28;20448;-80
2021/12/14 15:09:03;;;;;;;47.10;31.23;;;;;;;;;;4945324;28;20430;-80
2021/12/14 15:14:40;;;;;;;45.67;29.87;;;;;;;;;;4924718;28;20430;-80
2021/12/14 15:17:40;;;;;;;47.23;31.47;;;;;;;;;;4953129;28;20451;-81
2021/12/14 15:26:57;;;;;;;48.63;31.77;;;;;;;;;;4848694;29;21207;-80
2021/12/14 15:29:48;;;;;;;;;;;;;;;;;;;;;
2021/12/14 15:32:40;;;;;;;56.97;33.83;;;;;;;;;;4896308;29;20442;-80
2021/12/14 15:38:39;;;;;;;49.83;33.80;;;;;;;;;;4869778;29;20445;-80
2021/12/14 15:41:42;;;;;;;52.47;34.70;;;;;;;;;;4965231;28;20428;-80
2021/12/14 15:44:19;;;;;;;;;;;;;;;;;;;;;
2021/12/14 15:47:21;;;;;;;;;;;;;;;;;;;;;
2021/12/14 15:49:59;;;;;;;;;;;;;;;;;;;;;
2021/12/14 15:56:13;;;;;;;;;;;;;;;;;;;;;
2021/12/14 15:58:47;;;;;;;52.53;34.43;;;;;;;;;;4980701;28;20524;-80
2021/12/14 16:04:41;;;;;;;50.73;34.20;;;;;;;;;;4908779;28;21330;-80
2021/12/14 16:07:19;;;;;;;51.77;34.37;;;;;;;;;;4992067;28;20424;-80
2021/12/14 16:10:07;;;;;;;;;;;;;;;;;;;;;
2021/12/14 16:15:46;;;;;;;46.07;31.33;;;;;;;;;;4989748;28;20396;-80
2021/12/14 16:18:31;;;;;;;57.20;34.63;;;;;;;;;;4988609;28;20933;-80
2021/12/14 16:21:09;;;;;;;;;;;;;;;;;;;;;
2021/12/14 16:23:46;;;;;;;51.40;33.07;;;;;;;;;;4988680;28;20898;-79
2021/12/14 16:26:21;;;;;;;54.70;32.63;;;;;;;;;;4985249;28;20413;-80
2021/12/14 16:29:10;;;;;;;47.10;31.63;;;;;;;;;;4985403;28;20421;-80
2021/12/14 16:31:58;;;;;;;49.17;33.37;;;;;;;;;;4989043;28;20477;-80
2021/12/14 16:34:34;;;;;;;49.47;32.23;;;;;;;;;;4986995;28;20439;-80
2021/12/14 16:37:22;;;;;;;50.80;32.57;;;;;;;;;;4971804;28;20966;-80
2021/12/14 16:39:49;;;;;;;52.17;33.07;;;;;;;;;;4988766;28;20432;-79
2021/12/14 16:45:21;;;;;;;50.40;32.70;;;;;;;;;;4983720;28;20522;-79
2021/12/14 16:47:56;;;;;;;52.67;33.40;;;;;;;;;;4971191;28;20883;-80
2021/12/14 16:50:35;;;;;;;52.97;33.30;;;;;;;;;;4982647;28;21436;-80
2021/12/14 16:53:08;;;;;;;56.83;34.73;;;;;;;;;;4982870;28;20432;-80
2021/12/14 16:55:41;;;;;;;55.93;31.93;;;;;;;;;;4970065;28;20421;-79
2021/12/14 16:58:17;;;;;;;52.20;33.57;;;;;;;;;;4969930;28;20428;-79
2021/12/14 17:00:47;;;;;;;52.10;34.53;;;;;;;;;;4982390;28;20432;-79
2021/12/14 17:03:45;;;;;;;50.20;34.20;;;;;;;;;;4990378;28;20420;-79
2021/12/14 17:06:18;;;;;;;51.90;33.83;;;;;;;;;;4975375;28;20601;-79
2021/12/14 17:08:48;;;;;;;53.83;35.90;;;;;;;;;;4986354;28;20489;-80
2021/12/14 17:11:18;;;;;;;58.90;37.17;;;;;;;;;;4989072;28;20420;-79
2021/12/14 17:14:09;;;;;;;60.53;38.03;;;;;;;;;;4993894;28;20478;-80
2021/12/14 17:16:41;;;;;;;60.97;37.57;;;;;;;;;;4973902;28;20532;-79
2021/12/14 17:19:40;;;;;;;62.57;39.40;;;;;;;;;;4981760;28;20436;-79
2021/12/14 17:22:13;;;;;;;57.60;36.53;;;;;;;;;;5004297;28;20501;-79
2021/12/14 17:24:43;;;;;;;57.33;37.93;;;;;;;;;;4990853;28;20446;-79
2021/12/14 17:27:25;;;;;;;55.53;37.47;;;;;;;;;;5004737;28;20420;-79
2021/12/14 17:29:55;;;;;;;59.23;38.33;;;;;;;;;;4984484;28;20428;-80
2021/12/14 17:35:35;;;;;;;59.30;37.73;;;;;;;;;;4947692;28;21434;-79
2021/12/14 17:38:08;;;;;;;60.10;37.93;;;;;;;;;;4965227;28;20425;-79
2021/12/14 17:40:38;;;;;;;71.50;41.00;;;;;;;;;;4986779;28;20432;-79
2021/12/14 17:43:11;;;;;;;72.43;42.07;;;;;;;;;;5006681;28;20416;-79
2021/12/14 17:45:40;;;;;;;59.27;38.63;;;;;;;;;;4988508;28;20441;-79
2021/12/14 17:48:10;;;;;;;55.73;37.70;;;;;;;;;;4986756;28;21415;-79
2021/12/14 17:50:38;;;;;;;60.33;39.00;;;;;;;;;;4991110;28;20917;-80
2021/12/14 17:53:20;;;;;;;59.00;38.70;;;;;;;;;;4986135;28;20424;-80
2021/12/14 17:55:51;;;;;;;60.13;39.33;;;;;;;;;;4986220;28;20431;-80
2021/12/14 18:01:46;;;;;;;67.57;40.50;;;;;;;;;;4987927;28;20444;-80
2021/12/14 18:04:13;;;;;;;62.57;39.80;;;;;;;;;;4974697;28;20471;-80
2021/12/14 18:06:58;;;;;;;;;;;;;;;;;;;;;
2021/12/14 18:09:41;;;;;;;;;;;;;;;;;;;;;
2021/12/14 18:12:18;;;;;;;71.43;45.10;;;;;;;;;;4991150;28;21350;-81
2021/12/14 18:14:48;;;;;;;65.13;43.13;;;;;;;;;;5000108;28;20436;-79
2021/12/14 18:17:54;;;;;;;64.23;42.50;;;;;;;;;;4991076;28;20413;-80
2021/12/14 18:20:42;;;;;;;60.33;40.00;;;;;;;;;;4991179;28;20541;-80
2021/12/14 18:23:20;;;;;;;71.10;44.47;;;;;;;;;;4991971;28;20436;-80
2021/12/14 18:26:00;;;;;;;79.40;49.70;;;;;;;;;;4991419;28;20424;-81
2021/12/14 18:28:26;;;;;;;66.73;42.43;;;;;;;;;;4973103;28;20412;-81
2021/12/14 18:34:28;;;;;;;69.70;43.07;;;;;;;;;;4991338;28;20407;-80
2021/12/14 18:37:13;;;;;;;;;;;;;;;;;;;;;
2021/12/14 18:42:57;;;;;;;74.30;45.30;;;;;;;;;;4975572;28;20529;-81
2021/12/14 18:45:27;;;;;;;72.23;44.50;;;;;;;;;;4987071;28;20477;-81